Time;durP1;ratioP1;P1;durP2;ratioP2;P2;SDS_P1;SDS_P2;PMS_P1;PMS_P2;Temp;Humidity;BMP_temperature;BMP_pressure;BME280_temperature;BME280_humidity;BME280_pressure;Samples;Min_cycle;Max_cycle;Signal;HPM_P1;HPM_P2
2022/03/08 00:00:31;;;;;;;11.23;7.22;;;0.60;99.90;;;;;;5050336;28;20075;-72
2022/03/08 00:02:58;;;;;;;10.68;7.65;;;0.60;99.90;;;;;;5050656;28;20516;-72
2022/03/08 00:05:25;;;;;;;10.98;6.93;;;0.60;99.90;;;;;;5055372;28;20054;-72
2022/03/08 00:07:51;;;;;;;11.85;7.45;;;0.60;99.90;;;;;;5055283;28;20144;-72
2022/03/08 00:10:18;;;;;;;10.20;7.55;;;0.60;99.90;;;;;;5055156;28;20509;-72
2022/03/08 00:12:48;;;;;;;11.40;7.90;;;0.50;99.90;;;;;;5051670;28;20045;-71
2022/03/08 00:15:18;;;;;;;14.85;7.90;;;0.50;99.90;;;;;;5070049;28;20040;-71
2022/03/08 00:17:43;;;;;;;10.48;7.45;;;0.50;99.90;;;;;;5069754;28;20036;-71
2022/03/08 00:20:10;;;;;;;11.23;7.50;;;0.60;99.90;;;;;;5051951;28;20093;-72
2022/03/08 00:22:36;;;;;;;13.02;7.57;;;0.60;99.90;;;;;;5054038;28;20047;-72
2022/03/08 00:25:04;;;;;;;10.50;7.68;;;0.60;99.90;;;;;;5056372;28;20764;-71
2022/03/08 00:27:30;;;;;;;10.65;7.32;;;0.50;99.90;;;;;;5069840;28;20679;-71
2022/03/08 00:29:56;;;;;;;11.50;7.10;;;0.50;99.90;;;;;;5052151;28;20136;-71
2022/03/08 00:32:22;;;;;;;11.60;7.57;;;0.60;99.90;;;;;;5073153;28;20432;-71
2022/03/08 00:34:48;;;;;;;11.70;7.68;;;0.50;99.90;;;;;;5071265;28;20400;-71
2022/03/08 00:37:14;;;;;;;11.20;7.38;;;0.50;99.90;;;;;;5054615;28;20025;-71
2022/03/08 00:39:40;;;;;;;12.10;8.00;;;0.50;99.90;;;;;;5068726;28;20066;-71
2022/03/08 00:42:11;;;;;;;10.10;7.28;;;0.50;99.90;;;;;;5053903;28;20033;-71
2022/03/08 00:44:44;;;;;;;12.77;7.38;;;0.40;99.90;;;;;;5036077;28;20048;-71
2022/03/08 00:47:10;;;;;;;10.57;7.90;;;0.40;99.90;;;;;;5050999;28;20449;-72
2022/03/08 00:49:37;;;;;;;12.23;7.70;;;0.50;99.90;;;;;;5052190;28;20114;-72
2022/03/08 00:52:03;;;;;;;11.20;8.23;;;0.40;99.90;;;;;;5072265;28;20409;-71
2022/03/08 00:54:29;;;;;;;11.70;8.10;;;0.40;99.90;;;;;;5070736;28;20424;-71
2022/03/08 00:56:55;;;;;;;11.80;8.13;;;0.40;99.90;;;;;;5054580;28;20114;-70
2022/03/08 00:59:20;;;;;;;16.10;8.27;;;0.40;99.90;;;;;;5069442;28;20059;-71
2022/03/08 01:01:46;;;;;;;13.75;7.78;;;0.40;99.90;;;;;;5052642;28;20037;-68
2022/03/08 01:04:11;;;;;;;13.38;7.75;;;0.40;99.90;;;;;;5050700;28;20047;-72
2022/03/08 01:06:39;;;;;;;10.65;7.82;;;0.50;99.90;;;;;;5054327;28;20044;-70
2022/03/08 01:09:05;;;;;;;11.25;8.02;;;0.30;99.90;;;;;;5036867;28;20549;-70
2022/03/08 01:11:31;;;;;;;11.80;7.80;;;0.30;99.90;;;;;;5039362;28;20032;-70
2022/03/08 01:13:57;;;;;;;11.18;7.97;;;0.30;99.90;;;;;;5031852;28;20044;-70
2022/03/08 01:16:22;;;;;;;12.52;8.38;;;0.20;99.90;;;;;;5068062;28;20480;-70
2022/03/08 01:18:48;;;;;;;11.70;8.20;;;0.30;99.90;;;;;;5043717;28;20095;-70
2022/03/08 01:21:14;;;;;;;10.95;8.10;;;0.30;99.90;;;;;;5070380;28;20040;-71
2022/03/08 01:23:41;;;;;;;13.25;8.65;;;0.30;99.90;;;;;;5038442;28;20453;-69
2022/03/08 01:26:07;;;;;;;12.45;8.40;;;0.20;99.90;;;;;;5054625;28;20033;-72
2022/03/08 01:28:33;;;;;;;13.20;8.82;;;0.20;99.90;;;;;;5055401;28;20046;-72
2022/03/08 01:30:59;;;;;;;12.00;8.30;;;0.20;99.90;;;;;;5052600;28;20039;-71
2022/03/08 01:33:24;;;;;;;12.55;8.15;;;0.20;99.90;;;;;;5051022;28;20045;-71
2022/03/08 01:35:50;;;;;;;12.90;8.50;;;0.20;99.90;;;;;;5035265;28;20514;-71
2022/03/08 01:38:15;;;;;;;13.80;8.73;;;0.20;99.90;;;;;;5033636;28;20525;-71
2022/03/08 01:40:41;;;;;;;14.25;9.10;;;0.20;99.90;;;;;;5071224;28;20035;-71
2022/03/08 01:43:07;;;;;;;13.70;8.90;;;0.20;99.90;;;;;;5051501;28;20050;-70
2022/03/08 01:45:34;;;;;;;12.70;8.50;;;0.20;99.90;;;;;;5049127;28;20072;-71
2022/03/08 01:48:00;;;;;;;12.70;9.15;;;0.20;99.90;;;;;;5069217;28;20041;-71
2022/03/08 01:50:26;;;;;;;14.10;9.60;;;0.10;99.90;;;;;;5051816;28;20418;-71
2022/03/08 01:52:53;;;;;;;15.43;9.20;;;0.10;99.90;;;;;;5054009;28;20044;-71
2022/03/08 01:55:19;;;;;;;12.18;9.05;;;0.10;99.90;;;;;;5035397;28;20035;-71
2022/03/08 01:57:47;;;;;;;13.57;9.68;;;0.10;99.90;;;;;;5050206;28;20051;-70
2022/03/08 02:00:15;;;;;;;14.00;9.50;;;0.10;99.90;;;;;;5053359;28;20605;-71
2022/03/08 02:02:42;;;;;;;13.73;9.48;;;0.10;99.90;;;;;;5070671;28;20399;-71
2022/03/08 02:05:08;;;;;;;16.02;9.50;;;0.10;99.90;;;;;;5047245;28;20096;-69
2022/03/08 02:07:34;;;;;;;15.90;9.70;;;0.00;99.90;;;;;;5046765;28;20434;-71
2022/03/08 02:10:00;;;;;;;12.57;9.07;;;0.00;99.90;;;;;;5054476;28;20093;-71
2022/03/08 02:12:26;;;;;;;13.32;9.40;;;0.00;99.90;;;;;;5052367;28;20041;-68
2022/03/08 02:14:51;;;;;;;16.95;9.70;;;-0.10;99.90;;;;;;5050627;28;20059;-71
2022/03/08 02:17:17;;;;;;;16.08;9.95;;;-0.10;99.90;;;;;;5049054;28;20045;-70
2022/03/08 02:19:43;;;;;;;13.45;9.50;;;0.00;99.90;;;;;;5053245;28;20047;-71
2022/03/08 02:22:09;;;;;;;13.80;9.35;;;-0.10;99.90;;;;;;5052934;28;20086;-72
2022/03/08 02:24:34;;;;;;;12.27;9.63;;;-0.20;99.90;;;;;;5054586;28;20044;-72
2022/03/08 02:27:00;;;;;;;16.17;10.57;;;-0.20;99.90;;;;;;5053208;28;20073;-70
2022/03/08 02:29:27;;;;;;;15.90;9.93;;;-0.20;99.90;;;;;;5051410;28;20067;-73
2022/03/08 02:31:56;;;;;;;14.52;9.60;;;-0.20;99.90;;;;;;5032780;28;20665;-70
2022/03/08 02:34:22;;;;;;;13.57;10.05;;;-0.10;99.90;;;;;;5046207;28;20060;-71
2022/03/08 02:37:07;;;;;;;18.98;10.68;;;-0.10;99.90;;;;;;5054151;28;20072;-70
2022/03/08 02:39:33;;;;;;;14.38;10.60;;;-0.10;99.90;;;;;;5048302;28;20099;-70
2022/03/08 02:41:59;;;;;;;14.18;10.07;;;-0.20;99.90;;;;;;5052732;28;20507;-70
2022/03/08 02:44:25;;;;;;;17.70;10.27;;;-0.20;99.90;;;;;;5048224;28;20172;-70
2022/03/08 02:46:52;;;;;;;17.25;10.55;;;-0.20;99.90;;;;;;5035760;28;20036;-71
2022/03/08 02:49:18;;;;;;;16.67;10.75;;;-0.20;99.90;;;;;;5050453;28;20395;-71
2022/03/08 02:51:43;;;;;;;14.77;10.93;;;-0.20;99.90;;;;;;5054066;28;20048;-71
2022/03/08 02:54:09;;;;;;;15.30;10.98;;;-0.20;99.90;;;;;;5051405;28;20029;-72
2022/03/08 02:56:35;;;;;;;16.95;11.20;;;-0.30;99.90;;;;;;5069845;28;20044;-72
2022/03/08 02:59:01;;;;;;;16.27;10.48;;;-0.30;99.90;;;;;;5049125;28;20049;-71
2022/03/08 03:01:26;;;;;;;14.55;10.73;;;-0.30;99.90;;;;;;5052699;28;20044;-71
2022/03/08 03:03:52;;;;;;;17.35;11.15;;;-0.40;99.90;;;;;;5057196;28;20040;-69
2022/03/08 03:06:18;;;;;;;17.25;11.85;;;-0.40;99.90;;;;;;5056302;28;20036;-72
2022/03/08 03:08:43;;;;;;;17.40;12.00;;;-0.40;99.90;;;;;;5054768;28;21120;-72
2022/03/08 03:11:09;;;;;;;20.33;11.75;;;-0.40;99.90;;;;;;5068486;28;20084;-69
2022/03/08 03:13:35;;;;;;;17.38;11.55;;;-0.50;99.90;;;;;;5054233;28;20044;-71
2022/03/08 03:16:01;;;;;;;17.40;12.25;;;-0.40;99.90;;;;;;5053259;28;20036;-71
2022/03/08 03:18:27;;;;;;;16.52;11.32;;;-0.50;99.90;;;;;;5070151;28;20040;-70
2022/03/08 03:20:52;;;;;;;17.23;12.45;;;-0.50;99.90;;;;;;5052725;28;20116;-68
2022/03/08 03:23:18;;;;;;;18.27;12.25;;;-0.50;99.90;;;;;;5048097;28;20628;-70
2022/03/08 03:25:44;;;;;;;20.90;13.35;;;-0.50;99.90;;;;;;5056875;28;20105;-70
2022/03/08 03:28:10;;;;;;;17.80;12.25;;;-0.50;99.90;;;;;;5055411;28;20487;-71
2022/03/08 03:30:35;;;;;;;19.33;12.65;;;-0.50;99.90;;;;;;5069651;28;20552;-71
2022/03/08 03:33:03;;;;;;;22.40;12.60;;;-0.40;99.90;;;;;;5052269;28;20053;-71
2022/03/08 03:35:29;;;;;;;17.83;12.45;;;-0.40;99.90;;;;;;5057709;28;20037;-70
2022/03/08 03:37:55;;;;;;;17.05;12.68;;;-0.50;99.90;;;;;;5052934;28;20035;-71
2022/03/08 03:40:21;;;;;;;17.45;12.55;;;-0.50;99.90;;;;;;5056305;28;20050;-72
2022/03/08 03:42:46;;;;;;;22.95;13.73;;;-0.50;99.90;;;;;;5054735;28;20040;-71
2022/03/08 03:45:13;;;;;;;21.55;12.82;;;-0.50;99.90;;;;;;5057118;28;20583;-71
2022/03/08 03:47:39;;;;;;;19.27;14.30;;;-0.50;99.90;;;;;;5052780;28;20054;-72
2022/03/08 03:50:06;;;;;;;21.10;13.00;;;-0.50;99.90;;;;;;5056063;28;20035;-69
2022/03/08 03:52:32;;;;;;;18.58;13.75;;;-0.50;99.90;;;;;;5055000;28;20049;-72
2022/03/08 03:54:58;;;;;;;18.73;13.27;;;-0.40;99.90;;;;;;5040383;28;20411;-69
2022/03/08 03:57:23;;;;;;;20.10;13.80;;;-0.40;99.90;;;;;;5057481;28;20052;-72
2022/03/08 03:59:49;;;;;;;20.70;13.75;;;-0.50;99.90;;;;;;5040368;28;20032;-70
2022/03/08 04:02:15;;;;;;;20.17;13.90;;;-0.50;99.90;;;;;;5040224;28;20472;-70
2022/03/08 04:04:40;;;;;;;19.45;13.70;;;-0.40;99.90;;;;;;5038053;28;21824;-70
2022/03/08 04:07:06;;;;;;;19.27;13.50;;;-0.50;99.90;;;;;;5049976;28;20057;-71
2022/03/08 04:09:32;;;;;;;20.30;14.95;;;-0.50;99.90;;;;;;5056083;28;20037;-70
2022/03/08 04:11:57;;;;;;;21.65;14.93;;;-0.50;99.90;;;;;;5050870;28;20496;-70
2022/03/08 04:14:23;;;;;;;20.95;14.88;;;-0.50;99.90;;;;;;5057882;28;20750;-70
2022/03/08 04:16:49;;;;;;;20.92;14.23;;;-0.50;99.90;;;;;;5076665;28;20486;-70
2022/03/08 04:19:15;;;;;;;22.45;15.57;;;-0.50;99.90;;;;;;5073437;28;20419;-70
2022/03/08 04:21:40;;;;;;;21.98;14.90;;;-0.40;99.90;;;;;;5053410;28;20166;-71
2022/03/08 04:24:06;;;;;;;21.88;15.07;;;-0.50;99.90;;;;;;5053270;28;20516;-72
2022/03/08 04:26:32;;;;;;;20.42;15.07;;;-0.50;99.90;;;;;;5055209;28;20494;-70
2022/03/08 04:28:57;;;;;;;22.40;15.05;;;-0.60;99.90;;;;;;5041527;28;20044;-73
2022/03/08 04:31:23;;;;;;;23.88;15.93;;;-0.60;99.90;;;;;;5039242;28;20041;-70
2022/03/08 04:33:49;;;;;;;22.70;14.80;;;-0.60;99.90;;;;;;5023436;28;20032;-71
2022/03/08 04:36:14;;;;;;;24.83;16.35;;;-0.60;99.90;;;;;;5071675;28;20033;-71
2022/03/08 04:38:40;;;;;;;22.88;15.80;;;-0.60;99.90;;;;;;5056016;28;20067;-70
2022/03/08 04:41:06;;;;;;;22.08;15.60;;;-0.70;99.90;;;;;;5052418;28;20062;-70
2022/03/08 04:43:33;;;;;;;21.05;15.38;;;-0.70;99.90;;;;;;5071075;28;20086;-71
2022/03/08 04:45:58;;;;;;;21.63;14.82;;;-0.70;99.90;;;;;;5065736;28;20036;-72
2022/03/08 04:48:24;;;;;;;23.30;16.15;;;-0.70;99.90;;;;;;5051456;28;20097;-72
2022/03/08 04:50:50;;;;;;;21.05;15.75;;;-0.80;99.90;;;;;;5051318;28;20049;-70
2022/03/08 04:53:15;;;;;;;23.58;15.68;;;-0.80;99.90;;;;;;5070050;28;20119;-71
2022/03/08 04:55:41;;;;;;;23.45;16.25;;;-0.80;99.90;;;;;;5049336;28;20033;-69
2022/03/08 04:58:06;;;;;;;23.77;16.60;;;-0.80;99.90;;;;;;5048592;28;20032;-71
2022/03/08 05:00:32;;;;;;;26.38;16.13;;;-0.70;99.90;;;;;;5051578;28;20134;-70
2022/03/08 05:02:58;;;;;;;24.67;16.05;;;-0.80;99.90;;;;;;5057067;28;20045;-70
2022/03/08 05:05:24;;;;;;;26.10;16.75;;;-0.70;99.90;;;;;;5053991;28;20262;-71
2022/03/08 05:07:50;;;;;;;24.65;16.55;;;-0.70;99.90;;;;;;5039844;28;20040;-71
2022/03/08 05:10:16;;;;;;;24.08;16.08;;;-0.70;99.90;;;;;;5058787;28;20135;-71
2022/03/08 05:12:41;;;;;;;24.85;16.80;;;-0.70;99.90;;;;;;5053693;28;20144;-71
2022/03/08 05:15:08;;;;;;;22.02;15.95;;;-0.70;99.90;;;;;;5051051;28;20160;-71
2022/03/08 05:17:34;;;;;;;24.33;15.68;;;-0.70;99.90;;;;;;5055632;28;20032;-71
2022/03/08 05:20:00;;;;;;;24.15;17.27;;;-0.70;99.90;;;;;;5068036;28;20089;-71
2022/03/08 05:22:25;;;;;;;25.83;16.80;;;-0.80;99.90;;;;;;5061856;28;20050;-71
2022/03/08 05:24:51;;;;;;;24.42;17.73;;;-0.80;99.90;;;;;;5053909;28;20137;-71
2022/03/08 05:27:17;;;;;;;23.73;17.38;;;-0.80;99.90;;;;;;5035463;28;20040;-71
2022/03/08 05:29:42;;;;;;;26.25;16.75;;;-0.80;99.90;;;;;;5065200;28;20566;-71
2022/03/08 05:32:08;;;;;;;25.15;17.00;;;-0.80;99.90;;;;;;5070986;28;20043;-71
2022/03/08 05:34:34;;;;;;;25.10;17.25;;;-0.80;99.90;;;;;;5052206;28;20132;-71
2022/03/08 05:37:00;;;;;;;25.08;16.88;;;-0.80;99.90;;;;;;5048042;28;20045;-71
2022/03/08 05:39:25;;;;;;;22.42;16.48;;;-0.80;99.90;;;;;;5048362;28;20404;-71
2022/03/08 05:41:51;;;;;;;26.70;16.88;;;-0.80;99.90;;;;;;5057686;28;20394;-70
2022/03/08 05:44:17;;;;;;;24.35;17.25;;;-0.80;99.90;;;;;;5071055;28;20040;-70
2022/03/08 05:46:44;;;;;;;29.42;17.60;;;-0.90;99.90;;;;;;5050434;28;20036;-71
2022/03/08 05:49:09;;;;;;;25.17;16.95;;;-0.80;99.90;;;;;;5052945;28;21005;-70
2022/03/08 05:51:35;;;;;;;24.45;16.88;;;-0.80;99.90;;;;;;5069179;28;20036;-71
2022/03/08 05:54:01;;;;;;;21.73;16.58;;;-0.80;99.90;;;;;;5052687;28;20152;-70
2022/03/08 05:56:27;;;;;;;63.78;18.77;;;-0.80;99.90;;;;;;5058091;28;20131;-70
2022/03/08 05:58:52;;;;;;;27.30;17.27;;;-0.80;99.90;;;;;;5051319;28;20068;-72
2022/03/08 06:01:18;;;;;;;28.85;17.63;;;-0.80;99.90;;;;;;5051441;28;20040;-71
2022/03/08 06:03:44;;;;;;;26.45;16.40;;;-0.90;99.90;;;;;;5050794;28;20046;-72
2022/03/08 06:06:10;;;;;;;29.55;16.73;;;-0.90;99.90;;;;;;5052057;28;20060;-72
2022/03/08 06:08:35;;;;;;;26.77;15.55;;;-0.90;99.90;;;;;;5038807;28;20036;-71
2022/03/08 06:11:01;;;;;;;23.40;15.75;;;-0.90;99.90;;;;;;5054417;28;20040;-71
2022/03/08 06:13:27;;;;;;;25.63;16.52;;;-0.90;99.90;;;;;;5049047;28;20044;-71
2022/03/08 06:15:52;;;;;;;23.98;15.77;;;-0.90;99.90;;;;;;5056195;28;20048;-71
2022/03/08 06:18:18;;;;;;;25.98;16.63;;;-1.00;99.90;;;;;;5059124;28;20036;-72
2022/03/08 06:20:44;;;;;;;26.23;16.77;;;-0.90;99.90;;;;;;5050338;28;20044;-71
2022/03/08 06:23:09;;;;;;;23.10;16.00;;;-0.90;99.90;;;;;;5045942;28;20123;-70
2022/03/08 06:25:35;;;;;;;23.90;15.95;;;-0.90;99.90;;;;;;5048281;28;20086;-70
2022/03/08 06:28:01;;;;;;;23.15;16.77;;;-0.90;99.90;;;;;;5048977;28;20440;-70
2022/03/08 06:30:27;;;;;;;22.80;15.52;;;-0.90;99.90;;;;;;5049612;28;20500;-70
2022/03/08 06:32:52;;;;;;;24.23;16.40;;;-0.90;99.90;;;;;;5046994;28;20041;-70
2022/03/08 06:35:19;;;;;;;22.98;16.52;;;-0.80;99.90;;;;;;5051182;28;20036;-70
2022/03/08 06:37:45;;;;;;;22.73;16.17;;;-0.80;99.90;;;;;;5055517;28;20042;-70
2022/03/08 06:40:12;;;;;;;22.42;15.95;;;-0.80;99.90;;;;;;5057701;28;20044;-70
2022/03/08 06:42:37;;;;;;;25.17;15.98;;;-0.80;99.90;;;;;;5059673;28;20070;-70
2022/03/08 06:45:07;;;;;;;25.33;16.17;;;-0.80;99.90;;;;;;5052332;28;20052;-70
2022/03/08 06:47:33;;;;;;;23.85;16.42;;;-0.70;99.90;;;;;;5052881;28;20037;-70
2022/03/08 06:49:59;;;;;;;24.08;16.05;;;-0.70;99.90;;;;;;5052947;28;20072;-69
2022/03/08 06:52:24;;;;;;;22.63;16.38;;;-0.70;99.90;;;;;;5036477;28;20069;-69
2022/03/08 06:54:50;;;;;;;24.73;16.33;;;-0.60;99.90;;;;;;5068702;28;20062;-71
2022/03/08 06:57:16;;;;;;;24.90;15.80;;;-0.50;99.90;;;;;;5039646;28;20028;-71
2022/03/08 06:59:42;;;;;;;23.00;15.95;;;-0.50;99.90;;;;;;5055945;28;20036;-71
2022/03/08 07:02:09;;;;;;;24.77;15.63;;;-0.50;99.90;;;;;;5074040;28;20127;-71
2022/03/08 07:04:34;;;;;;;22.92;15.80;;;-0.50;99.90;;;;;;5055668;28;20056;-70
2022/03/08 07:07:00;;;;;;;26.55;15.57;;;-0.40;99.90;;;;;;5060815;28;20093;-69
2022/03/08 07:09:26;;;;;;;21.85;15.90;;;-0.40;99.90;;;;;;5074079;28;20053;-69
2022/03/08 07:11:52;;;;;;;20.48;15.30;;;-0.30;99.90;;;;;;5040571;28;20068;-69
2022/03/08 07:14:17;;;;;;;22.55;15.80;;;-0.30;99.90;;;;;;5059743;28;20075;-69
2022/03/08 07:16:44;;;;;;;21.10;15.25;;;-0.20;99.90;;;;;;5079955;28;20460;-69
2022/03/08 07:19:11;;;;;;;23.33;16.45;;;-0.10;99.90;;;;;;5057338;28;20033;-70
2022/03/08 07:21:36;;;;;;;22.95;15.57;;;-0.10;99.90;;;;;;5060481;28;20044;-71
2022/03/08 07:24:02;;;;;;;21.02;15.77;;;0.00;99.90;;;;;;5059178;28;20036;-68
2022/03/08 07:26:28;;;;;;;21.48;15.57;;;0.10;99.90;;;;;;5056160;28;20040;-71
2022/03/08 07:28:54;;;;;;;20.27;15.77;;;0.20;99.90;;;;;;5073215;28;20063;-71
2022/03/08 07:31:19;;;;;;;21.35;14.90;;;0.30;99.90;;;;;;5051966;28;20048;-70
2022/03/08 07:33:45;;;;;;;21.35;15.30;;;0.30;99.90;;;;;;5078684;28;20086;-69
2022/03/08 07:36:11;;;;;;;19.17;14.38;;;0.40;99.90;;;;;;5050397;28;20089;-70
2022/03/08 07:38:37;;;;;;;19.55;14.85;;;0.50;99.90;;;;;;5071908;28;20174;-70
2022/03/08 07:41:03;;;;;;;20.52;15.73;;;0.60;99.90;;;;;;5076933;28;20123;-71
2022/03/08 07:43:29;;;;;;;20.63;15.27;;;0.70;99.90;;;;;;5056792;28;20052;-71
2022/03/08 07:45:55;;;;;;;21.17;14.98;;;0.70;99.90;;;;;;5055326;28;20114;-70
2022/03/08 07:48:20;;;;;;;21.48;14.65;;;0.90;99.90;;;;;;5054065;28;20080;-71
2022/03/08 07:50:46;;;;;;;21.85;14.82;;;1.00;99.90;;;;;;5053282;28;20044;-69
2022/03/08 07:53:12;;;;;;;18.15;14.10;;;1.10;99.90;;;;;;5071739;28;20056;-70
2022/03/08 07:55:38;;;;;;;20.38;14.40;;;1.20;99.90;;;;;;5073242;28;20038;-70
2022/03/08 07:58:04;;;;;;;16.98;13.70;;;1.30;99.90;;;;;;5057406;28;20067;-70
2022/03/08 08:00:31;;;;;;;19.38;14.15;;;1.50;99.90;;;;;;5055070;28;20041;-71
2022/03/08 08:02:59;;;;;;;17.98;13.60;;;1.70;99.90;;;;;;5069687;28;20052;-71
2022/03/08 08:05:25;;;;;;;16.40;13.63;;;1.80;99.90;;;;;;5052302;28;20446;-71
2022/03/08 08:07:50;;;;;;;19.88;13.95;;;1.80;99.90;;;;;;5065856;28;20040;-70
2022/03/08 08:10:16;;;;;;;15.13;12.32;;;2.00;99.90;;;;;;5066825;28;20037;-72
2022/03/08 08:12:42;;;;;;;16.38;12.68;;;2.10;99.90;;;;;;5048010;28;20037;-72
2022/03/08 08:15:08;;;;;;;16.20;13.07;;;2.20;99.90;;;;;;5052792;28;20041;-72
2022/03/08 08:17:34;;;;;;;16.15;13.32;;;2.40;99.90;;;;;;5053211;28;20037;-71
2022/03/08 08:20:00;;;;;;;17.70;12.73;;;2.50;99.90;;;;;;5053316;28;20036;-71
2022/03/08 08:22:44;;;;;;;17.13;12.38;;;2.60;99.90;;;;;;5053476;28;20044;-71
2022/03/08 08:25:10;;;;;;;17.17;12.65;;;2.70;99.90;;;;;;5054926;28;20119;-71
2022/03/08 08:27:37;;;;;;;15.52;12.35;;;2.90;99.90;;;;;;5072113;28;20676;-71
2022/03/08 08:30:04;;;;;;;15.90;13.27;;;3.00;99.90;;;;;;5056830;28;20064;-72
2022/03/08 08:32:30;;;;;;;15.88;12.52;;;3.10;99.90;;;;;;5059692;28;20040;-72
2022/03/08 08:34:56;;;;;;;15.13;12.50;;;3.20;99.90;;;;;;5053942;28;20381;-70
2022/03/08 08:37:22;;;;;;;17.83;12.57;;;3.30;99.90;;;;;;5013650;28;20048;-72
2022/03/08 08:39:48;;;;;;;16.42;12.48;;;3.40;99.90;;;;;;5048372;28;20037;-71
2022/03/08 08:42:13;;;;;;;15.20;11.50;;;3.50;99.90;;;;;;5053441;28;20040;-71
2022/03/08 08:44:39;;;;;;;15.77;11.57;;;3.60;99.90;;;;;;5052853;28;20135;-69
2022/03/08 08:47:05;;;;;;;14.80;11.27;;;3.80;99.90;;;;;;5059145;28;20045;-72
2022/03/08 08:49:30;;;;;;;13.43;11.05;;;3.90;99.90;;;;;;5053278;28;20036;-71
2022/03/08 08:51:56;;;;;;;15.07;11.38;;;4.10;99.90;;;;;;5031336;28;20048;-70
2022/03/08 08:54:22;;;;;;;13.98;11.73;;;4.20;99.90;;;;;;5066860;28;20072;-71
2022/03/08 08:56:48;;;;;;;14.45;10.85;;;4.30;99.90;;;;;;5052652;28;20028;-72
2022/03/08 08:59:14;;;;;;;14.82;11.70;;;4.40;99.90;;;;;;5058687;28;20028;-70
2022/03/08 09:01:40;;;;;;;14.43;10.68;;;4.50;99.90;;;;;;5055985;28;20036;-70
2022/03/08 09:04:06;;;;;;;14.30;10.52;;;4.70;99.90;;;;;;5071974;28;20043;-73
2022/03/08 09:06:31;;;;;;;13.10;9.98;;;4.80;99.90;;;;;;5056327;28;20427;-72
2022/03/08 09:08:57;;;;;;;15.23;10.60;;;4.90;99.90;;;;;;5054096;28;20037;-70
2022/03/08 09:11:23;;;;;;;13.52;9.90;;;4.90;99.90;;;;;;5051915;28;20048;-71
2022/03/08 09:13:49;;;;;;;12.57;10.52;;;5.10;99.90;;;;;;5039893;28;20036;-70
2022/03/08 09:16:15;;;;;;;13.23;9.63;;;5.20;99.90;;;;;;5042901;28;20073;-71
2022/03/08 09:18:44;;;;;;;13.35;9.30;;;5.30;99.90;;;;;;5053502;28;20044;-71
2022/03/08 09:21:11;;;;;;;12.30;9.60;;;5.40;99.90;;;;;;5055058;28;20040;-71
2022/03/08 09:23:38;;;;;;;10.93;9.27;;;5.50;99.90;;;;;;5054741;28;20032;-71
2022/03/08 09:26:05;;;;;;;11.20;9.38;;;5.70;99.90;;;;;;5054531;28;20075;-72
2022/03/08 09:28:30;;;;;;;10.30;9.20;;;5.70;98.70;;;;;;5052826;28;20049;-72
2022/03/08 09:30:57;;;;;;;11.27;9.25;;;5.90;98.60;;;;;;5051519;28;20059;-72
2022/03/08 09:33:22;;;;;;;10.55;8.90;;;6.00;98.30;;;;;;5051806;28;20083;-72
2022/03/08 09:35:48;;;;;;;13.00;8.93;;;6.10;98.90;;;;;;5077901;28;20071;-72
2022/03/08 09:38:14;;;;;;;10.30;8.35;;;6.20;98.30;;;;;;5049413;28;20044;-72
2022/03/08 09:40:39;;;;;;;10.23;8.65;;;6.30;96.10;;;;;;5051249;28;20037;-72
2022/03/08 09:43:06;;;;;;;11.60;8.25;;;6.40;95.40;;;;;;5054576;28;20572;-72
2022/03/08 09:45:32;;;;;;;9.82;8.30;;;6.40;94.10;;;;;;5052389;28;20043;-71
2022/03/08 09:47:58;;;;;;;9.20;8.18;;;6.50;92.80;;;;;;5067425;28;20122;-72
2022/03/08 09:50:23;;;;;;;10.45;8.25;;;6.60;92.80;;;;;;5069152;28;20036;-72
2022/03/08 09:52:53;;;;;;;11.40;8.30;;;6.70;91.60;;;;;;5053202;28;20136;-72
2022/03/08 09:55:18;;;;;;;10.20;8.25;;;6.80;91.10;;;;;;5053679;28;20047;-72
2022/03/08 09:57:46;;;;;;;9.63;7.75;;;6.90;91.40;;;;;;5053465;28;20045;-72
2022/03/08 10:00:12;;;;;;;12.63;8.43;;;6.90;90.40;;;;;;5044718;28;20484;-72
2022/03/08 10:03:08;;;;;;;9.40;8.40;;;7.00;87.90;;;;;;5048170;28;20049;-71
2022/03/08 10:05:39;;;;;;;11.10;8.23;;;7.10;88.20;;;;;;5046345;28;20063;-71
2022/03/08 10:08:14;;;;;;;10.00;7.97;;;7.20;86.60;;;;;;5054456;28;20040;-72
2022/03/08 10:10:45;;;;;;;13.23;7.80;;;7.30;86.60;;;;;;5057269;28;20047;-71
2022/03/08 10:13:12;;;;;;;9.45;7.07;;;7.40;85.20;;;;;;5057446;28;20036;-71
2022/03/08 10:15:39;;;;;;;8.57;7.45;;;7.50;85.20;;;;;;5026287;28;20033;-72
2022/03/08 10:18:05;;;;;;;10.82;7.65;;;7.60;83.70;;;;;;5057431;28;20060;-72
2022/03/08 10:20:32;;;;;;;8.48;7.00;;;7.70;81.20;;;;;;5076870;28;20036;-72
2022/03/08 10:22:59;;;;;;;8.32;6.70;;;7.70;80.50;;;;;;5055468;28;20068;-71
2022/03/08 10:25:28;;;;;;;9.25;7.60;;;7.80;75.80;;;;;;5055466;28;21436;-72
2022/03/08 10:27:54;;;;;;;7.00;6.22;;;7.90;76.30;;;;;;5056141;28;20051;-72
2022/03/08 10:30:40;;;;;;;9.75;7.32;;;7.90;73.80;;;;;;5056646;28;20052;-72
2022/03/08 10:33:05;;;;;;;7.32;6.13;;;8.00;74.50;;;;;;5052451;28;20089;-73
2022/03/08 10:35:33;;;;;;;7.40;6.70;;;8.20;73.40;;;;;;5058464;28;20040;-72
2022/03/08 10:38:05;;;;;;;7.47;6.32;;;8.30;70.10;;;;;;5054793;28;20036;-73
2022/03/08 10:40:34;;;;;;;8.88;7.03;;;8.40;70.00;;;;;;5052719;28;20036;-72
2022/03/08 10:43:05;;;;;;;9.80;6.68;;;8.60;69.80;;;;;;5059976;28;20036;-71
2022/03/08 10:45:33;;;;;;;8.60;5.95;;;8.70;66.90;;;;;;5047295;28;20047;-71
2022/03/08 10:48:00;;;;;;;6.95;5.75;;;8.80;65.60;;;;;;5061457;28;20046;-71
2022/03/08 10:50:29;;;;;;;7.50;6.07;;;9.00;63.30;;;;;;5072056;28;20124;-71
2022/03/08 10:52:57;;;;;;;8.43;5.97;;;9.00;63.10;;;;;;5056896;28;20119;-71
2022/03/08 10:55:26;;;;;;;8.05;6.32;;;9.20;61.50;;;;;;5037831;28;20033;-72
2022/03/08 10:58:03;;;;;;;7.88;6.30;;;9.30;60.70;;;;;;5074390;28;20040;-72
2022/03/08 11:00:31;;;;;;;7.45;6.53;;;9.40;62.00;;;;;;5051369;28;20036;-72
2022/03/08 11:03:03;;;;;;;9.15;6.20;;;9.60;61.50;;;;;;5058247;28;20044;-72
2022/03/08 11:05:34;;;;;;;10.90;6.43;;;9.80;60.80;;;;;;5027512;28;20088;-71
2022/03/08 11:08:00;;;;;;;7.43;5.90;;;10.00;60.70;;;;;;5075038;28;20097;-71
2022/03/08 11:10:28;;;;;;;7.07;6.00;;;10.20;60.00;;;;;;5052418;28;20041;-71
2022/03/08 11:12:56;;;;;;;10.48;5.47;;;10.30;58.90;;;;;;5055533;28;20044;-71
2022/03/08 11:15:23;;;;;;;6.30;5.00;;;10.50;57.30;;;;;;5075454;28;20048;-72
2022/03/08 11:17:51;;;;;;;7.40;5.50;;;10.70;56.30;;;;;;5037165;28;20033;-73
2022/03/08 11:20:20;;;;;;;6.97;5.45;;;10.80;54.70;;;;;;5076853;28;20051;-73
2022/03/08 11:22:48;;;;;;;7.32;5.32;;;10.90;54.70;;;;;;5046413;28;20128;-74
2022/03/08 11:25:16;;;;;;;6.53;5.50;;;11.10;53.80;;;;;;5058838;28;20045;-76
2022/03/08 11:27:44;;;;;;;5.85;4.97;;;11.10;54.50;;;;;;5059929;28;20044;-75
2022/03/08 11:30:13;;;;;;;21.83;5.38;;;11.40;54.70;;;;;;5060446;28;20502;-74
2022/03/08 11:33:04;;;;;;;6.95;5.40;;;11.50;54.40;;;;;;5059150;28;20036;-72
2022/03/08 11:35:56;;;;;;;5.40;4.90;;;11.60;53.40;;;;;;5077249;28;20036;-71
2022/03/08 11:38:22;;;;;;;6.85;4.80;;;11.80;52.30;;;;;;5059063;28;20047;-72
2022/03/08 11:40:53;;;;;;;11.25;5.18;;;11.90;52.30;;;;;;5073239;28;20056;-71
2022/03/08 11:43:20;;;;;;;6.15;4.90;;;12.10;53.00;;;;;;5055721;28;20041;-72
2022/03/08 11:45:48;;;;;;;5.55;4.78;;;12.20;51.10;;;;;;5053439;28;20044;-71
2022/03/08 11:48:19;;;;;;;5.78;4.60;;;12.30;50.50;;;;;;5054100;28;20127;-72
2022/03/08 11:50:46;;;;;;;5.32;4.40;;;12.50;50.50;;;;;;5055034;28;20068;-72
2022/03/08 11:53:24;;;;;;;5.93;4.65;;;12.60;49.10;;;;;;5052210;28;20036;-72
2022/03/08 11:55:56;;;;;;;6.10;4.57;;;12.70;49.50;;;;;;5058929;28;20040;-72
2022/03/08 11:58:23;;;;;;;4.38;3.90;;;12.90;49.40;;;;;;5049574;28;20129;-72
2022/03/08 12:00:58;;;;;;;4.35;3.95;;;12.90;47.60;;;;;;5037857;28;20037;-73
2022/03/08 12:03:24;;;;;;;4.00;3.60;;;13.00;47.40;;;;;;5053144;28;20040;-73
2022/03/08 12:06:04;;;;;;;4.35;3.75;;;13.10;47.00;;;;;;5046518;28;20606;-73
2022/03/08 12:08:29;;;;;;;4.53;3.50;;;13.10;45.70;;;;;;5050095;28;20036;-72
2022/03/08 12:11:03;;;;;;;4.15;3.75;;;13.20;47.60;;;;;;5054238;28;20408;-72
2022/03/08 12:13:32;;;;;;;4.53;3.42;;;13.40;46.60;;;;;;5053675;28;20040;-73
2022/03/08 12:16:09;;;;;;;6.45;3.50;;;13.50;45.80;;;;;;5053993;28;20488;-72
2022/03/08 12:18:51;;;;;;;4.68;3.63;;;13.60;45.80;;;;;;5059863;28;20043;-73
2022/03/08 12:21:20;;;;;;;3.92;3.50;;;13.60;46.30;;;;;;5072392;28;20040;-73
2022/03/08 12:23:54;;;;;;;3.90;3.38;;;13.60;45.60;;;;;;5053344;28;20135;-73
2022/03/08 12:26:38;;;;;;;3.58;3.28;;;13.70;44.00;;;;;;5054963;28;20040;-73
2022/03/08 12:29:29;;;;;;;4.53;3.40;;;13.60;43.90;;;;;;5040183;28;20040;-71
2022/03/08 12:34:39;;;;;;;5.03;3.70;;;13.80;45.10;;;;;;5053125;28;20060;-73
2022/03/08 12:37:35;;;;;;;4.32;3.70;;;13.80;46.10;;;;;;5069816;28;20040;-73
2022/03/08 12:40:03;;;;;;;5.55;3.83;;;13.90;45.80;;;;;;5053276;28;20172;-73